Time;durP1;ratioP1;P1;durP2;ratioP2;P2;SDS_P1;SDS_P2;PMS_P1;PMS_P2;Temp;Humidity;BMP_temperature;BMP_pressure;BME280_temperature;BME280_humidity;BME280_pressure;Samples;Min_cycle;Max_cycle;Signal;HPM_P1;HPM_P2
2024/01/01 00:01:40;;;;;;;450.38;261.65;;;;;;;11.35;68.07;100112.03;5020835;27;97466;-74
2024/01/01 00:04:08;;;;;;;464.92;276.35;;;;;;;11.33;68.35;100111.25;5021932;27;97464;-74
2024/01/01 00:06:35;;;;;;;430.38;261.38;;;;;;;11.45;67.99;100107.13;5026306;27;97242;-73
2024/01/01 00:09:01;;;;;;;440.48;271.02;;;;;;;11.47;67.82;100103.50;5023028;27;100156;-75
2024/01/01 00:11:28;;;;;;;433.73;265.85;;;;;;;11.50;67.54;100095.38;5022973;27;98793;-75
2024/01/01 00:13:54;;;;;;;434.10;264.17;;;;;;;11.46;67.21;100096.47;5024273;27;97112;-73
2024/01/01 00:16:20;;;;;;;434.10;259.77;;;;;;;11.34;67.66;100105.03;5026185;27;97027;-75
2024/01/01 00:18:47;;;;;;;423.15;257.85;;;;;;;11.51;67.30;100098.91;5024025;27;101428;-74
2024/01/01 00:21:15;;;;;;;401.40;237.00;;;;;;;11.43;67.48;100090.47;5024367;27;99044;-74
2024/01/01 00:23:42;;;;;;;390.77;231.60;;;;;;;11.35;67.84;100093.53;5023390;27;100907;-75
2024/01/01 00:26:08;;;;;;;379.52;225.73;;;;;;;11.58;67.26;100089.72;5026797;27;96826;-74
2024/01/01 00:28:34;;;;;;;378.08;219.32;;;;;;;11.28;67.85;100097.38;5020944;27;97842;-74
2024/01/01 00:31:01;;;;;;;336.90;195.07;;;;;;;11.32;67.99;100088.38;5021830;27;99180;-74
2024/01/01 00:33:27;;;;;;;317.00;179.68;;;;;;;11.29;67.91;100085.84;5024396;27;97243;-75
2024/01/01 00:35:54;;;;;;;303.42;173.63;;;;;;;11.19;68.46;100084.59;5026633;27;96779;-75
2024/01/01 00:38:21;;;;;;;289.38;162.48;;;;;;;11.18;68.51;100101.41;5023156;27;99363;-75
2024/01/01 00:40:48;;;;;;;262.80;147.05;;;;;;;11.20;68.11;100096.91;5020593;27;100523;-75
2024/01/01 00:43:14;;;;;;;257.90;138.70;;;;;;;11.31;67.86;100086.66;5029552;27;96737;-75
2024/01/01 00:45:41;;;;;;;236.25;134.55;;;;;;;11.17;68.86;100097.03;5026698;27;97310;-75
2024/01/01 00:48:07;;;;;;;244.20;129.02;;;;;;;11.25;68.37;100107.25;5023347;27;99110;-75
2024/01/01 00:50:34;;;;;;;212.48;119.20;;;;;;;11.10;68.68;100095.59;5022313;27;98842;-74
2024/01/01 00:53:00;;;;;;;177.85;100.22;;;;;;;11.31;67.81;100089.28;5028409;27;96806;-76
2024/01/01 00:55:28;;;;;;;166.20;96.75;;;;;;;11.29;67.98;100103.53;5027831;27;97384;-76
2024/01/01 00:57:54;;;;;;;151.82;85.55;;;;;;;11.28;67.98;100096.53;5025546;27;99194;-75
2024/01/01 01:00:20;;;;;;;148.32;80.82;;;;;;;11.44;67.34;100092.19;5020507;27;98059;-75
2024/01/01 01:02:47;;;;;;;147.27;82.05;;;;;;;11.27;67.59;100103.59;5024334;27;97035;-74
2024/01/01 01:05:13;;;;;;;137.32;75.50;;;;;;;11.30;67.81;100106.09;5015968;27;98671;-74
2024/01/01 01:07:40;;;;;;;136.30;73.47;;;;;;;11.23;67.96;100107.31;5027742;27;99592;-74
2024/01/01 01:10:07;;;;;;;120.20;65.53;;;;;;;11.12;68.23;100112.25;5020562;27;101362;-75
2024/01/01 01:12:35;;;;;;;117.68;61.42;;;;;;;11.15;68.14;100101.56;5030677;27;97398;-73
2024/01/01 01:15:02;;;;;;;104.55;56.85;;;;;;;10.93;69.07;100109.63;5032074;27;97170;-76
2024/01/01 01:17:28;;;;;;;97.20;53.72;;;;;;;11.16;68.39;100105.88;5028419;27;98801;-74
2024/01/01 01:19:55;;;;;;;96.50;51.15;;;;;;;11.08;68.51;100108.06;5024488;27;99188;-74
2024/01/01 01:22:21;;;;;;;99.32;51.35;;;;;;;10.90;69.02;100101.84;5025281;27;97149;-74
2024/01/01 01:24:47;;;;;;;85.82;45.58;;;;;;;11.03;68.75;100102.13;5014658;27;97329;-73
2024/01/01 01:27:14;;;;;;;79.80;41.83;;;;;;;11.03;68.98;100097.69;5023082;27;96966;-74
2024/01/01 01:29:42;;;;;;;82.85;42.50;;;;;;;11.02;68.77;100103.94;5027120;27;102758;-73
2024/01/01 01:32:09;;;;;;;78.68;41.97;;;;;;;10.91;68.78;100103.56;5026911;27;97323;-73
2024/01/01 01:34:35;;;;;;;80.45;39.88;;;;;;;10.95;69.30;100097.22;5016927;27;97876;-73
2024/01/01 01:37:01;;;;;;;72.40;37.40;;;;;;;10.87;69.06;100096.72;5022274;27;98878;-73
2024/01/01 01:39:28;;;;;;;65.18;34.47;;;;;;;11.04;69.15;100095.91;5028299;27;98950;-73
2024/01/01 01:41:54;;;;;;;56.88;31.05;;;;;;;10.85;69.12;100102.97;5027991;27;97789;-73
2024/01/01 01:44:21;;;;;;;57.25;32.20;;;;;;;10.91;69.09;100095.63;5027926;27;96962;-73
2024/01/01 01:46:48;;;;;;;69.63;34.72;;;;;;;10.90;68.82;100096.56;5024921;27;99109;-72
2024/01/01 01:49:15;;;;;;;60.38;31.50;;;;;;;10.91;69.22;100097.41;5028425;27;99210;-73
2024/01/01 01:51:41;;;;;;;60.35;30.65;;;;;;;10.84;69.23;100085.41;5021301;27;97506;-72
2024/01/01 01:54:08;;;;;;;59.35;29.98;;;;;;;10.93;69.11;100092.91;5025504;27;96846;-73
2024/01/01 01:56:34;;;;;;;47.50;27.42;;;;;;;10.91;69.28;100076.25;5029565;27;99686;-73
2024/01/01 01:59:03;;;;;;;49.40;28.35;;;;;;;10.81;69.58;100082.94;5028794;27;97558;-71
2024/01/01 02:01:29;;;;;;;58.75;29.48;;;;;;;10.65;69.82;100075.69;5021661;27;97152;-74
2024/01/01 02:03:57;;;;;;;56.75;30.15;;;;;;;10.82;69.46;100077.56;5022679;27;98049;-73
2024/01/01 02:06:24;;;;;;;59.28;31.23;;;;;;;10.82;69.27;100071.44;5022466;27;98899;-73
2024/01/01 02:08:51;;;;;;;56.40;29.88;;;;;;;10.73;69.27;100073.56;5028098;27;98880;-73
2024/01/01 02:11:17;;;;;;;52.90;28.85;;;;;;;10.93;69.02;100069.13;5027895;27;99919;-73
2024/01/01 02:13:43;;;;;;;55.88;28.98;;;;;;;10.73;69.17;100063.00;5026158;27;97978;-73
2024/01/01 02:16:09;;;;;;;57.08;28.70;;;;;;;10.96;68.39;100071.66;5026120;27;99248;-72
2024/01/01 02:18:36;;;;;;;54.92;28.98;;;;;;;10.77;69.09;100077.78;5024383;27;98955;-73
2024/01/01 02:21:04;;;;;;;58.22;29.63;;;;;;;11.09;68.28;100078.06;5020843;27;98423;-73
2024/01/01 02:23:32;;;;;;;58.90;28.63;;;;;;;10.92;68.61;100083.28;5029378;27;96931;-75
2024/01/01 02:25:58;;;;;;;48.97;27.00;;;;;;;10.77;68.89;100080.41;5022198;27;98945;-75
2024/01/01 02:28:25;;;;;;;54.47;27.88;;;;;;;10.85;68.98;100076.56;5026533;27;99300;-75
2024/01/01 02:30:51;;;;;;;57.63;28.63;;;;;;;10.76;68.82;100072.59;5026170;27;97200;-73
2024/01/01 02:33:18;;;;;;;53.67;27.63;;;;;;;10.63;69.67;100080.19;5021609;27;97427;-73
2024/01/01 02:35:44;;;;;;;55.83;27.67;;;;;;;10.68;69.52;100080.84;5022090;27;98995;-73
2024/01/01 02:38:10;;;;;;;52.92;26.20;;;;;;;10.65;69.73;100074.84;5028506;27;99805;-71
2024/01/01 02:40:38;;;;;;;47.30;26.65;;;;;;;10.39;70.12;100073.41;5022025;27;99293;-73
2024/01/01 02:43:05;;;;;;;50.00;25.08;;;;;;;10.59;69.23;100072.50;5022287;27;96861;-72
2024/01/01 02:45:32;;;;;;;51.38;25.63;;;;;;;10.55;69.81;100074.44;5013656;27;101920;-70
2024/01/01 02:47:59;;;;;;;48.45;25.27;;;;;;;10.57;69.38;100075.19;5022410;27;100610;-70
2024/01/01 02:50:26;;;;;;;53.40;26.80;;;;;;;10.32;70.43;100072.81;5024542;27;98709;-73
2024/01/01 02:52:52;;;;;;;47.20;25.23;;;;;;;10.26;70.80;100073.09;5027059;27;98471;-73
2024/01/01 02:55:18;;;;;;;97.07;48.08;;;;;;;10.42;70.29;100069.78;5025748;27;101508;-72
2024/01/01 02:57:46;;;;;;;85.93;45.22;;;;;;;10.46;70.20;100077.47;5022453;27;98832;-72
2024/01/01 03:00:14;;;;;;;75.28;36.33;;;;;;;10.56;69.92;100068.22;5019209;27;97320;-71
2024/01/01 03:02:41;;;;;;;62.45;28.55;;;;;;;10.44;70.08;100068.75;5022485;27;96876;-72
2024/01/01 03:05:08;;;;;;;76.95;31.75;;;;;;;10.45;69.69;100067.84;5028092;27;98917;-72
2024/01/01 03:07:34;;;;;;;78.78;32.13;;;;;;;10.55;69.54;100068.28;5027841;27;99323;-71
2024/01/01 03:10:01;;;;;;;49.53;24.80;;;;;;;10.50;69.38;100076.41;5023056;27;97303;-72
2024/01/01 03:12:28;;;;;;;53.53;25.42;;;;;;;10.42;69.47;100073.28;5028691;27;97658;-71
2024/01/01 03:14:55;;;;;;;49.85;22.45;;;;;;;10.17;70.15;100073.53;5025304;27;98223;-72
2024/01/01 03:17:21;;;;;;;45.03;21.67;;;;;;;10.43;69.75;100080.28;5026743;27;98822;-72
2024/01/01 03:19:48;;;;;;;39.13;19.95;;;;;;;10.42;69.71;100078.56;5028514;27;98696;-71
2024/01/01 03:22:14;;;;;;;38.50;19.15;;;;;;;10.65;68.94;100067.78;5021097;27;96816;-72
2024/01/01 03:24:40;;;;;;;33.55;17.30;;;;;;;10.63;69.03;100071.44;5023012;27;99498;-71
2024/01/01 03:27:07;;;;;;;35.03;18.25;;;;;;;10.54;68.72;100077.13;5023481;27;98986;-71
2024/01/01 03:29:33;;;;;;;41.17;19.60;;;;;;;10.62;68.63;100069.72;5023213;27;96842;-71
2024/01/01 03:32:01;;;;;;;27.33;15.43;;;;;;;10.81;67.63;100069.72;5026049;27;98923;-73
2024/01/01 03:34:27;;;;;;;28.38;15.25;;;;;;;10.84;67.50;100072.19;5025410;27;99330;-72
2024/01/01 03:36:53;;;;;;;33.45;16.83;;;;;;;10.61;68.14;100066.22;5025247;27;98851;-74
2024/01/01 03:39:20;;;;;;;35.83;16.98;;;;;;;10.72;67.96;100071.00;5017743;27;96693;-73
2024/01/01 03:41:46;;;;;;;33.25;15.50;;;;;;;10.71;67.94;100059.56;5021552;27;96952;-72
2024/01/01 03:44:13;;;;;;;34.33;16.20;;;;;;;10.62;68.08;100065.28;5019191;27;98252;-72
2024/01/01 03:46:39;;;;;;;39.20;17.02;;;;;;;10.58;68.78;100061.06;5028347;28;98914;-72
2024/01/01 03:49:07;;;;;;;36.03;17.80;;;;;;;10.68;68.21;100064.16;5027234;27;99077;-72
2024/01/01 03:51:33;;;;;;;39.78;18.92;;;;;;;10.69;68.00;100066.72;5025796;27;96952;-74
2024/01/01 03:54:00;;;;;;;35.60;17.50;;;;;;;10.49;68.16;100069.44;5016618;27;101426;-73
2024/01/01 03:56:26;;;;;;;33.20;17.15;;;;;;;10.56;68.75;100070.88;5024584;27;99290;-73
2024/01/01 03:58:53;;;;;;;32.42;15.88;;;;;;;10.54;68.16;100066.56;5026043;27;97154;-73
2024/01/01 04:01:20;;;;;;;32.42;14.55;;;;;;;10.36;68.96;100065.63;5027032;27;96830;-73
2024/01/01 04:03:47;;;;;;;28.83;13.80;;;;;;;10.49;68.40;100073.84;5025511;27;99100;-73
2024/01/01 04:06:14;;;;;;;27.30;13.60;;;;;;;10.42;68.82;100073.28;5023250;27;98961;-72
2024/01/01 04:08:41;;;;;;;29.45;13.75;;;;;;;10.41;68.85;100066.28;5027276;27;97267;-72
2024/01/01 04:11:07;;;;;;;32.58;14.68;;;;;;;10.42;68.89;100068.00;5023972;27;97247;-72
2024/01/01 04:13:33;;;;;;;30.38;13.52;;;;;;;10.51;68.51;100064.91;5030037;27;98051;-72
2024/01/01 04:16:00;;;;;;;29.85;13.70;;;;;;;10.35;68.60;100067.41;5026545;27;99473;-73
2024/01/01 04:18:26;;;;;;;35.17;15.20;;;;;;;10.43;68.05;100064.44;5026000;27;97430;-72
2024/01/01 04:20:53;;;;;;;27.88;13.38;;;;;;;10.50;68.11;100065.84;5025508;27;97461;-72
2024/01/01 04:23:20;;;;;;;29.08;13.88;;;;;;;10.57;68.30;100061.13;5022525;27;101882;-73
2024/01/01 04:25:47;;;;;;;28.55;14.45;;;;;;;10.61;67.79;100063.56;5028386;27;99117;-73
2024/01/01 04:28:13;;;;;;;31.55;13.68;;;;;;;10.64;67.62;100058.13;5028829;27;97128;-73
2024/01/01 04:30:39;;;;;;;28.73;14.07;;;;;;;10.62;67.55;100057.38;5027584;27;97105;-73
2024/01/01 04:33:06;;;;;;;30.73;14.07;;;;;;;10.61;67.33;100062.72;5025967;27;97732;-72
2024/01/01 04:35:33;;;;;;;32.90;14.93;;;;;;;10.61;67.56;100063.56;5030436;27;98898;-73
2024/01/01 04:37:59;;;;;;;32.67;14.25;;;;;;;10.77;67.23;100058.41;5027530;27;98947;-73
2024/01/01 04:40:27;;;;;;;32.78;14.73;;;;;;;10.87;66.56;100059.72;5029156;27;96872;-73
2024/01/01 04:42:55;;;;;;;30.13;14.68;;;;;;;10.62;66.87;100052.09;5030905;27;99681;-72
2024/01/01 04:45:22;;;;;;;30.42;14.48;;;;;;;10.96;65.95;100051.31;5028241;27;99847;-73
2024/01/01 04:47:49;;;;;;;30.23;14.82;;;;;;;10.98;65.68;100059.19;5024519;27;96782;-72
2024/01/01 04:50:15;;;;;;;31.02;14.55;;;;;;;11.07;65.43;100062.25;5024812;27;98767;-71
2024/01/01 04:52:43;;;;;;;33.47;14.65;;;;;;;10.87;65.96;100053.56;5026438;27;99587;-72
2024/01/01 04:55:10;;;;;;;28.83;14.18;;;;;;;11.00;65.52;100054.69;5030468;27;99184;-72
2024/01/01 04:57:37;;;;;;;29.00;15.13;;;;;;;11.03;65.62;100060.69;5027494;27;97261;-72
2024/01/01 05:00:05;;;;;;;31.98;14.90;;;;;;;10.99;65.50;100060.91;5028071;27;97212;-71
2024/01/01 05:02:32;;;;;;;34.13;14.80;;;;;;;10.87;65.99;100059.72;5029143;27;99613;-72
2024/01/01 05:04:58;;;;;;;35.90;15.55;;;;;;;10.99;65.59;100063.53;5026393;27;98719;-73
2024/01/01 05:07:24;;;;;;;29.65;14.63;;;;;;;10.81;65.97;100051.22;5029290;27;98809;-72
2024/01/01 05:09:51;;;;;;;29.92;15.02;;;;;;;10.85;65.94;100051.00;5024764;27;97349;-74
2024/01/01 05:12:17;;;;;;;30.90;15.20;;;;;;;10.85;66.04;100044.84;5019867;27;99489;-75
2024/01/01 05:14:45;;;;;;;25.35;13.82;;;;;;;10.92;65.91;100041.84;5025646;27;99167;-74
2024/01/01 05:17:11;;;;;;;29.95;14.77;;;;;;;10.75;65.79;100037.38;5029799;27;96982;-75
2024/01/01 05:19:38;;;;;;;30.48;15.20;;;;;;;10.88;65.95;100039.44;5019414;27;97648;-74
2024/01/01 05:22:06;;;;;;;26.90;14.20;;;;;;;10.84;66.11;100036.06;5023956;27;98432;-75
2024/01/01 05:24:35;;;;;;;30.17;14.40;;;;;;;10.71;66.45;100035.78;5019835;27;98845;-74
2024/01/01 05:27:03;;;;;;;30.67;15.32;;;;;;;10.84;66.21;100032.56;5017534;27;97141;-72
2024/01/01 05:29:29;;;;;;;28.92;14.18;;;;;;;10.92;66.10;100031.25;5022322;27;96936;-73
2024/01/01 05:31:57;;;;;;;29.90;14.38;;;;;;;10.75;65.82;100029.44;5027609;27;99162;-73
2024/01/01 05:34:23;;;;;;;31.30;14.35;;;;;;;10.70;66.12;100034.06;5030722;27;101140;-72
2024/01/01 05:36:49;;;;;;;25.17;13.32;;;;;;;10.88;65.99;100039.44;5027187;27;96793;-73
2024/01/01 05:39:16;;;;;;;28.55;14.32;;;;;;;10.75;66.19;100037.38;5030489;27;97284;-73
2024/01/01 05:41:42;;;;;;;24.52;12.52;;;;;;;10.32;67.83;100029.72;5025330;27;98921;-73
2024/01/01 05:44:08;;;;;;;24.00;12.93;;;;;;;10.42;67.44;100043.38;5028389;27;98732;-73
2024/01/01 05:46:35;;;;;;;25.80;12.70;;;;;;;10.30;68.35;100048.28;5023129;27;96852;-73
2024/01/01 05:49:03;;;;;;;25.42;12.13;;;;;;;10.31;68.06;100049.97;5025345;27;97233;-73
2024/01/01 05:51:29;;;;;;;27.15;12.98;;;;;;;10.32;68.53;100056.13;5024029;27;99171;-72
2024/01/01 05:53:57;;;;;;;24.20;11.63;;;;;;;10.11;69.23;100051.78;5029045;27;99077;-73
2024/01/01 05:56:24;;;;;;;24.08;11.95;;;;;;;9.98;69.99;100047.03;5029131;27;96920;-72
2024/01/01 05:58:50;;;;;;;24.42;11.50;;;;;;;10.00;70.88;100045.19;5030099;27;97702;-73
2024/01/01 06:01:16;;;;;;;22.52;11.45;;;;;;;10.12;70.22;100050.84;5028749;27;99724;-72
2024/01/01 06:03:44;;;;;;;24.33;12.23;;;;;;;10.21;70.19;100053.97;5023948;27;99234;-73
2024/01/01 06:06:12;;;;;;;25.40;12.23;;;;;;;10.37;70.06;100054.97;5025085;27;97676;-73
2024/01/01 06:08:38;;;;;;;24.83;12.63;;;;;;;10.32;70.23;100056.97;5025321;27;96924;-73
2024/01/01 06:11:05;;;;;;;27.63;12.32;;;;;;;10.59;70.30;100052.22;5015667;27;102345;-72
2024/01/01 06:13:31;;;;;;;27.17;11.23;;;;;;;10.55;69.52;100053.28;5027113;27;97790;-72
2024/01/01 06:15:58;;;;;;;27.20;11.70;;;;;;;10.45;69.98;100054.63;5029647;27;96817;-72
2024/01/01 06:18:26;;;;;;;24.38;10.82;;;;;;;10.37;70.12;100060.25;5018139;27;96904;-71
2024/01/01 06:20:52;;;;;;;21.65;11.10;;;;;;;10.48;69.55;100057.16;5026872;27;99839;-75
2024/01/01 06:23:20;;;;;;;22.65;11.25;;;;;;;10.52;69.28;100050.78;5028047;27;99506;-74
2024/01/01 06:25:46;;;;;;;22.67;10.63;;;;;;;10.59;69.03;100043.44;5024937;28;97079;-74
2024/01/01 06:28:13;;;;;;;21.92;10.75;;;;;;;10.67;68.57;100044.78;5025381;27;96838;-74
2024/01/01 06:30:39;;;;;;;22.45;10.68;;;;;;;10.69;68.72;100045.59;5026150;27;99037;-74
2024/01/01 06:33:05;;;;;;;21.33;10.43;;;;;;;10.53;68.97;100041.94;5028794;27;98795;-74
2024/01/01 06:35:32;;;;;;;23.85;9.80;;;;;;;10.65;69.30;100044.00;5027766;27;101133;-73
2024/01/01 06:37:58;;;;;;;20.55;9.60;;;;;;;10.58;68.91;100053.13;5019362;27;99529;-73
2024/01/01 06:40:26;;;;;;;22.90;9.35;;;;;;;10.67;68.62;100051.88;5028713;27;99224;-72
2024/01/01 06:42:52;;;;;;;21.02;9.23;;;;;;;10.86;67.90;100051.84;5026990;27;98259;-72
2024/01/01 06:45:19;;;;;;;17.88;9.18;;;;;;;10.91;67.75;100047.19;5028045;27;97110;-72
2024/01/01 06:47:45;;;;;;;19.13;9.48;;;;;;;10.98;67.32;100051.25;5028181;27;97021;-72
2024/01/01 06:50:11;;;;;;;19.23;9.02;;;;;;;10.94;67.51;100061.13;5026820;27;99631;-72
2024/01/01 06:52:38;;;;;;;20.50;8.68;;;;;;;10.85;67.55;100060.69;5019524;27;99028;-73
2024/01/01 06:55:05;;;;;;;17.75;9.00;;;;;;;10.81;67.53;100061.78;5018187;27;98084;-73
2024/01/01 06:57:32;;;;;;;18.02;9.10;;;;;;;10.89;67.53;100049.94;5021054;27;97838;-72
2024/01/01 06:59:59;;;;;;;19.45;8.55;;;;;;;10.89;67.87;100063.16;5022415;27;99259;-71
2024/01/01 07:02:26;;;;;;;19.27;9.45;;;;;;;11.00;67.40;100059.97;5018890;27;99029;-71
2024/01/01 07:04:52;;;;;;;17.67;7.82;;;;;;;10.94;67.39;100062.91;5023362;27;97614;-71
2024/01/01 07:07:18;;;;;;;18.38;7.38;;;;;;;10.98;67.06;100062.69;5026374;27;96803;-72
2024/01/01 07:09:45;;;;;;;18.15;7.97;;;;;;;11.02;67.32;100068.72;5017991;27;98753;-72
2024/01/01 07:12:19;;;;;;;17.90;7.63;;;;;;;11.07;66.74;100072.84;5024050;27;99128;-72
2024/01/01 07:14:46;;;;;;;17.00;7.65;;;;;;;11.02;66.31;100074.00;5023512;27;97032;-72
2024/01/01 07:17:13;;;;;;;16.23;6.90;;;;;;;10.93;67.03;100075.28;5027268;27;96764;-73
2024/01/01 07:19:39;;;;;;;13.70;7.57;;;;;;;11.03;67.23;100075.69;5024353;27;98922;-73
2024/01/01 07:22:06;;;;;;;16.25;6.68;;;;;;;11.02;66.69;100068.72;5022376;27;99990;-75
2024/01/01 07:24:33;;;;;;;13.98;6.82;;;;;;;10.94;66.97;100077.00;5027813;27;96682;-73
2024/01/01 07:26:59;;;;;;;15.60;7.32;;;;;;;11.09;66.67;100075.41;5027474;27;96818;-71
2024/01/01 07:29:27;;;;;;;15.35;6.65;;;;;;;11.04;66.91;100066.81;5017716;27;98259;-71
2024/01/01 07:31:55;;;;;;;13.07;6.43;;;;;;;11.13;66.43;100072.53;5023378;27;97585;-71
2024/01/01 07:34:21;;;;;;;15.25;5.90;;;;;;;10.96;67.28;100074.28;5028809;27;97106;-71
2024/01/01 07:36:48;;;;;;;16.13;6.50;;;;;;;10.94;66.98;100068.22;5027366;27;98789;-71
2024/01/01 07:39:19;;;;;;;16.00;6.53;;;;;;;11.19;66.73;100071.38;5026366;27;99189;-71
2024/01/01 07:41:45;;;;;;;13.73;6.25;;;;;;;10.93;66.76;100069.13;5024226;27;98798;-74
2024/01/01 07:44:12;;;;;;;14.70;5.88;;;;;;;10.86;67.57;100065.91;5025639;27;97007;-73
2024/01/01 07:46:39;;;;;;;13.07;6.03;;;;;;;10.93;67.14;100069.13;5018462;27;96954;-73
2024/01/01 07:49:07;;;;;;;8.15;5.13;;;;;;;10.89;67.08;100076.38;5021033;27;101889;-72
2024/01/01 07:51:34;;;;;;;10.18;5.13;;;;;;;11.05;66.75;100074.69;5024802;27;97635;-71
2024/01/01 07:54:00;;;;;;;13.38;6.03;;;;;;;10.71;67.97;100077.19;5023289;27;97591;-72
2024/01/01 07:56:27;;;;;;;12.75;5.55;;;;;;;10.81;67.94;100075.00;5026852;27;97217;-71
2024/01/01 07:58:54;;;;;;;10.93;4.93;;;;;;;10.68;68.03;100074.72;5024043;27;100555;-72
2024/01/01 08:01:20;;;;;;;16.02;5.80;;;;;;;10.92;67.20;100075.34;5023781;27;98176;-72
2024/01/01 08:03:47;;;;;;;10.02;4.40;;;;;;;11.00;66.97;100082.00;5021083;27;96918;-74
2024/01/01 08:06:17;;;;;;;12.95;4.65;;;;;;;11.08;66.80;100079.84;5021782;27;97079;-72
2024/01/01 08:08:44;;;;;;;11.20;4.82;;;;;;;10.78;67.80;100081.28;5021015;27;102385;-74
2024/01/01 08:11:11;;;;;;;9.57;4.70;;;;;;;10.87;67.53;100091.44;5018730;27;102114;-74
2024/01/01 08:13:37;;;;;;;12.93;5.25;;;;;;;10.85;67.87;100084.47;5023649;27;97988;-74
2024/01/01 08:16:04;;;;;;;10.93;4.95;;;;;;;10.82;67.92;100082.00;5021306;27;98995;-74
2024/01/01 08:18:31;;;;;;;16.27;4.75;;;;;;;10.97;67.42;100091.84;5023602;27;98894;-74
2024/01/01 08:20:57;;;;;;;9.38;4.57;;;;;;;11.08;67.27;100084.28;5014684;27;98904;-74
2024/01/01 08:23:25;;;;;;;13.90;5.38;;;;;;;11.29;66.16;100082.38;5016708;27;97002;-74
2024/01/01 08:25:51;;;;;;;10.98;4.80;;;;;;;11.26;66.11;100088.66;5021113;27;98500;-73
2024/01/01 08:28:18;;;;;;;11.75;4.40;;;;;;;11.17;66.64;100097.03;5019095;27;98953;-73
2024/01/01 08:30:44;;;;;;;9.45;4.35;;;;;;;11.00;66.98;100105.78;5018274;27;102349;-74
2024/01/01 08:33:11;;;;;;;9.70;4.25;;;;;;;10.69;68.20;100102.84;5017947;27;96845;-74
2024/01/01 08:35:37;;;;;;;7.90;4.03;;;;;;;10.48;70.18;100103.84;5028004;27;96968;-74
2024/01/01 08:38:04;;;;;;;7.97;3.85;;;;;;;10.51;69.62;100106.31;5021741;27;99224;-74
2024/01/01 08:40:31;;;;;;;11.70;4.40;;;;;;;10.62;69.66;100099.66;5021987;27;99014;-72
2024/01/01 08:42:58;;;;;;;8.45;4.32;;;;;;;10.84;68.91;100107.41;5025894;27;96837;-72
2024/01/01 08:45:24;;;;;;;10.98;4.38;;;;;;;10.66;69.10;100114.41;5026876;27;97888;-74
2024/01/01 08:47:51;;;;;;;9.50;4.40;;;;;;;10.50;69.76;100110.75;5026609;27;97707;-74
2024/01/01 08:50:18;;;;;;;10.43;4.40;;;;;;;10.66;69.22;100109.13;5026846;27;99107;-74
2024/01/01 08:52:44;;;;;;;10.73;4.25;;;;;;;10.86;68.57;100104.72;5026289;27;96792;-74
2024/01/01 08:55:11;;;;;;;10.10;4.00;;;;;;;10.90;67.80;100111.56;5026551;27;97844;-74
2024/01/01 08:57:39;;;;;;;8.60;3.97;;;;;;;11.02;68.27;100116.28;5019925;27;99627;-74
2024/01/01 09:00:07;;;;;;;9.50;4.68;;;;;;;11.00;67.48;100119.00;5025550;27;99034;-74
2024/01/01 09:02:33;;;;;;;10.70;4.30;;;;;;;11.08;67.63;100116.00;5024378;27;99150;-75
2024/01/01 09:05:00;;;;;;;12.75;4.72;;;;;;;11.13;67.37;100117.50;5026631;27;96913;-70
2024/01/01 09:07:26;;;;;;;10.90;4.93;;;;;;;11.26;67.16;100117.75;5030512;27;99277;-69
2024/01/01 09:09:52;;;;;;;14.75;4.90;;;;;;;11.40;66.18;100120.59;5026692;27;99082;-68
2024/01/01 09:12:19;;;;;;;8.95;4.07;;;;;;;11.36;66.41;100124.31;5028542;27;97568;-68
2024/01/01 09:14:47;;;;;;;13.00;4.70;;;;;;;11.45;66.23;100130.94;5029937;27;97639;-69
2024/01/01 09:17:13;;;;;;;13.23;4.72;;;;;;;11.47;65.97;100135.25;5025154;27;99157;-69
2024/01/01 09:19:40;;;;;;;9.57;4.20;;;;;;;11.53;65.93;100131.44;5026534;27;99623;-69
2024/01/01 09:22:08;;;;;;;9.20;3.63;;;;;;;11.54;65.64;100126.06;5023478;27;97462;-69
2024/01/01 09:24:35;;;;;;;10.45;4.53;;;;;;;11.61;65.18;100126.63;5021175;27;98631;-69
2024/01/01 09:27:01;;;;;;;8.27;4.15;;;;;;;11.75;65.27;100133.91;5026043;27;97895;-69
2024/01/01 09:29:28;;;;;;;9.65;3.63;;;;;;;11.72;64.83;100129.59;5022568;28;99044;-70
2024/01/01 09:31:55;;;;;;;8.07;3.95;;;;;;;11.70;64.79;100120.00;5020804;27;98891;-69
2024/01/01 09:34:22;;;;;;;10.48;4.43;;;;;;;11.56;65.43;100128.63;5024919;27;98247;-69
2024/01/01 09:36:48;;;;;;;11.07;3.65;;;;;;;11.22;66.70;100118.84;5028049;27;99048;-69
2024/01/01 09:39:14;;;;;;;11.48;3.83;;;;;;;11.22;66.56;100129.44;5024411;27;99472;-70
2024/01/01 09:41:41;;;;;;;11.93;3.35;;;;;;;11.48;65.70;100115.78;5023030;27;97848;-69
2024/01/01 09:44:10;;;;;;;12.23;3.97;;;;;;;11.45;65.74;100129.16;5028081;27;97346;-69
2024/01/01 09:46:36;;;;;;;8.60;3.40;;;;;;;11.39;66.09;100125.94;5023775;27;102393;-70
2024/01/01 09:49:04;;;;;;;9.10;3.47;;;;;;;11.61;65.25;100131.91;5030310;27;97689;-70
2024/01/01 09:51:32;;;;;;;10.27;4.13;;;;;;;11.39;65.93;100132.09;5026463;27;96906;-70
2024/01/01 09:54:01;;;;;;;5.65;3.53;;;;;;;11.70;64.98;100133.22;5024171;27;97540;-70
2024/01/01 09:56:27;;;;;;;6.40;3.17;;;;;;;11.72;64.36;100134.88;5023407;27;98940;-69
2024/01/01 09:58:57;;;;;;;11.27;3.97;;;;;;;11.30;65.49;100135.19;5025946;27;99060;-69
2024/01/01 10:01:23;;;;;;;6.95;3.28;;;;;;;11.44;66.29;100132.72;5026672;27;96732;-69
2024/01/01 10:04:02;;;;;;;10.30;3.58;;;;;;;11.40;65.87;100122.38;5023481;27;96860;-69
2024/01/01 10:06:30;;;;;;;10.20;3.40;;;;;;;11.41;66.51;100126.75;5023979;27;98905;-69
2024/01/01 10:09:05;;;;;;;8.57;3.60;;;;;;;11.13;67.02;100120.13;5025451;27;98882;-69
2024/01/01 10:11:34;;;;;;;9.85;3.08;;;;;;;11.31;66.73;100115.75;5025271;27;97175;-69
2024/01/01 10:14:03;;;;;;;9.27;3.92;;;;;;;11.45;65.76;100112.41;5027682;27;96804;-69
2024/01/01 10:16:30;;;;;;;11.68;3.88;;;;;;;11.67;65.46;100106.94;5025676;27;98863;-69
2024/01/01 10:18:58;;;;;;;7.45;3.53;;;;;;;11.80;64.45;100110.72;5023049;27;98812;-74
2024/01/01 10:21:30;;;;;;;8.25;3.72;;;;;;;11.80;64.21;100119.50;5026886;27;96759;-74
2024/01/01 10:23:58;;;;;;;8.88;2.80;;;;;;;12.03;63.42;100120.97;5025059;27;97359;-74
2024/01/01 10:26:24;;;;;;;8.95;3.92;;;;;;;11.80;64.01;100116.88;5026957;27;99539;-74
2024/01/01 10:28:51;;;;;;;7.57;3.22;;;;;;;11.98;62.92;100125.66;5026586;27;97534;-75
2024/01/01 10:31:18;;;;;;;9.40;3.35;;;;;;;12.03;62.82;100128.94;5027467;27;97392;-74
2024/01/01 10:33:49;;;;;;;7.95;3.90;;;;;;;11.64;63.92;100126.47;5027232;27;98212;-75
2024/01/01 10:36:16;;;;;;;7.53;3.75;;;;;;;11.71;64.29;100119.06;5029605;27;97748;-75
2024/01/01 10:38:48;;;;;;;10.50;4.05;;;;;;;11.80;63.65;100127.47;5023859;27;98856;-75
2024/01/01 10:41:15;;;;;;;13.48;4.30;;;;;;;11.79;63.63;100122.22;5022861;27;98671;-75
2024/01/01 10:43:43;;;;;;;9.43;3.70;;;;;;;11.83;63.38;100124.63;5024614;28;97121;-75
2024/01/01 10:46:13;;;;;;;11.23;3.78;;;;;;;11.77;63.77;100132.88;5027206;27;99264;-76
2024/01/01 10:48:42;;;;;;;8.15;3.50;;;;;;;11.74;64.00;100125.13;5025550;27;99170;-76
2024/01/01 10:51:25;;;;;;;10.52;3.72;;;;;;;11.94;63.25;100118.81;5027103;27;96885;-73
2024/01/01 10:54:17;;;;;;;9.77;3.85;;;;;;;11.98;63.20;100128.31;5027161;27;98907;-75
2024/01/01 10:56:55;;;;;;;8.02;3.30;;;;;;;11.94;63.10;100121.47;5016146;27;98115;-75
2024/01/01 10:59:24;;;;;;;10.15;3.97;;;;;;;11.73;63.92;100120.72;5021452;27;99400;-75
2024/01/01 11:01:52;;;;;;;11.48;4.30;;;;;;;12.01;63.02;100125.53;5022735;27;97272;-74
2024/01/01 11:04:20;;;;;;;11.18;3.53;;;;;;;12.04;62.75;100124.47;5028159;27;97198;-74
2024/01/01 11:06:49;;;;;;;7.38;3.70;;;;;;;11.82;63.25;100122.06;5019886;27;100909;-74
2024/01/01 11:09:34;;;;;;;11.60;4.22;;;;;;;11.81;63.24;100129.19;5022228;27;98813;-74
2024/01/01 11:12:02;;;;;;;8.13;3.63;;;;;;;11.58;64.81;100124.13;5019800;27;97474;-74